createdAt,value
2019-06-07T00:00:44.044Z,12.80
2019-06-07T00:03:23.656Z,12.70
2019-06-07T00:05:43.564Z,12.70
2019-06-07T00:08:21.388Z,12.60
2019-06-07T00:10:43.544Z,12.70
2019-06-07T00:13:15.213Z,12.60
2019-06-07T00:15:42.923Z,12.60
2019-06-07T00:18:15.079Z,12.60
2019-06-07T00:20:42.354Z,12.60
2019-06-07T00:23:14.735Z,12.60
2019-06-07T00:25:42.047Z,12.50
2019-06-07T00:28:10.833Z,12.50
2019-06-07T00:30:50.883Z,12.50
2019-06-07T00:33:15.332Z,12.50
2019-06-07T00:35:40.905Z,12.60
2019-06-07T00:38:09.931Z,12.60
2019-06-07T00:40:38.898Z,12.50
2019-06-07T00:43:07.845Z,12.50
2019-06-07T00:45:36.829Z,12.50
2019-06-07T00:48:05.848Z,12.50
2019-06-07T00:50:34.873Z,12.50
2019-06-07T00:53:28.793Z,12.50
2019-06-07T00:55:34.334Z,12.40
2019-06-07T00:58:03.350Z,12.40
2019-06-07T01:00:32.239Z,12.30
2019-06-07T01:03:01.140Z,12.30
2019-06-07T01:05:31.536Z,12.30
2019-06-07T01:08:02.447Z,12.30
2019-06-07T01:10:52.206Z,12.30
2019-06-07T01:13:03.697Z,12.30
2019-06-07T01:15:32.652Z,12.30
2019-06-07T01:18:33.520Z,12.20
2019-06-07T01:20:32.116Z,12.20
2019-06-07T01:23:00.982Z,12.20
2019-06-07T01:25:29.906Z,12.20
2019-06-07T01:27:58.782Z,12.20
2019-06-07T01:30:29.243Z,12.10
2019-06-07T01:32:58.436Z,12.20
2019-06-07T01:35:29.575Z,12.10
2019-06-07T01:37:58.013Z,12.10
2019-06-07T01:40:31.826Z,12.10
2019-06-07T01:42:57.625Z,12.10
2019-06-07T01:45:30.633Z,12.00
2019-06-07T01:47:57.269Z,12.00
2019-06-07T01:50:27.170Z,12.00
2019-06-07T01:52:56.368Z,12.00
2019-06-07T01:55:28.841Z,12.00
2019-06-07T01:57:55.888Z,11.90
2019-06-07T02:00:26.612Z,11.90
2019-06-07T02:02:56.161Z,11.90
2019-06-07T02:05:28.444Z,11.90
2019-06-07T02:07:55.697Z,11.90
2019-06-07T02:10:27.901Z,11.90
2019-06-07T02:12:55.105Z,11.90
2019-06-07T02:15:27.631Z,11.90
2019-06-07T02:17:55.045Z,12.00
2019-06-07T02:20:26.423Z,12.00
2019-06-07T02:22:54.439Z,12.00
2019-06-07T02:25:48.439Z,12.00
2019-06-07T02:28:11.033Z,12.10
2019-06-07T02:30:40.445Z,12.10
2019-06-07T02:32:55.611Z,12.10
2019-06-07T02:35:30.894Z,12.00
2019-06-07T02:37:55.214Z,12.00
2019-06-07T02:40:24.533Z,11.90
2019-06-07T02:42:55.101Z,11.90
2019-06-07T02:45:24.875Z,11.90
2019-06-07T02:47:55.295Z,11.80
2019-06-07T02:50:26.227Z,11.80
2019-06-07T02:52:54.841Z,11.80
2019-06-07T02:55:27.387Z,11.80
2019-06-07T02:57:54.384Z,11.90
2019-06-07T03:01:00.626Z,11.90
2019-06-07T03:03:15.094Z,11.90
2019-06-07T03:05:45.021Z,11.90
2019-06-07T03:08:14.876Z,11.90
2019-06-07T03:10:47.253Z,12.00
2019-06-07T03:13:19.385Z,12.00
2019-06-07T03:15:50.314Z,12.00
2019-06-07T03:18:41.528Z,12.10
2019-06-07T03:21:13.377Z,12.10
2019-06-07T03:23:43.802Z,12.20
2019-06-07T03:26:12.689Z,12.20
2019-06-07T03:28:41.659Z,12.10
2019-06-07T03:31:10.495Z,12.10
2019-06-07T03:33:42.624Z,12.10
2019-06-07T03:36:23.415Z,12.10
2019-06-07T03:38:40.606Z,12.10
2019-06-07T03:41:09.539Z,12.10
2019-06-07T03:43:40.612Z,12.10
2019-06-07T03:46:09.097Z,12.10
2019-06-07T03:48:41.015Z,12.10
2019-06-07T03:51:24.049Z,12.10
2019-06-07T03:53:40.835Z,12.10
2019-06-07T03:56:10.593Z,12.10
2019-06-07T03:58:49.008Z,12.10
2019-06-07T04:01:10.514Z,12.20
2019-06-07T04:03:46.315Z,12.20
2019-06-07T04:06:10.093Z,12.20
2019-06-07T04:08:42.154Z,12.20
2019-06-07T04:11:09.426Z,12.30
2019-06-07T04:13:42.554Z,12.30
2019-06-07T04:16:08.998Z,12.30
2019-06-07T04:18:41.863Z,12.40
2019-06-07T04:21:08.884Z,12.40
2019-06-07T04:23:44.862Z,12.50
2019-06-07T04:26:08.677Z,12.50
2019-06-07T04:31:08.414Z,12.70
2019-06-07T04:33:42.854Z,12.70
2019-06-07T04:36:08.620Z,12.80
2019-06-07T04:38:40.736Z,12.90
2019-06-07T04:41:10.619Z,12.90
2019-06-07T04:43:41.321Z,13.00
2019-06-07T04:46:12.953Z,13.00
2019-06-07T04:48:44.766Z,13.10
2019-06-07T04:51:15.239Z,13.10
2019-06-07T04:53:44.296Z,13.10
2019-06-07T04:56:13.114Z,13.10
2019-06-07T04:58:43.224Z,13.20
2019-06-07T05:01:26.889Z,13.30
2019-06-07T05:03:44.341Z,13.40
2019-06-07T05:06:13.595Z,13.40
2019-06-07T05:08:43.843Z,13.40
2019-06-07T05:11:13.158Z,13.50
2019-06-07T05:13:43.821Z,13.60
2019-06-07T05:16:12.649Z,13.70
2019-06-07T05:18:43.239Z,13.80
2019-06-07T05:21:12.033Z,14.00
2019-06-07T05:24:06.525Z,14.00
2019-06-07T05:26:11.368Z,14.10
2019-06-07T05:28:42.736Z,14.20
2019-06-07T05:31:10.796Z,14.30
2019-06-07T05:33:41.232Z,14.50
2019-06-07T05:36:10.366Z,14.60
2019-06-07T05:38:42.565Z,14.60
2019-06-07T05:41:10.133Z,14.70
2019-06-07T05:43:44.675Z,14.70
2019-06-07T05:46:09.587Z,14.80
2019-06-07T05:48:41.714Z,15.00
2019-06-07T05:51:09.697Z,15.00
2019-06-07T05:53:40.810Z,15.20
2019-06-07T05:56:09.634Z,15.20
2019-06-07T05:58:41.894Z,15.20
2019-06-07T06:03:40.467Z,15.30
2019-06-07T06:06:10.447Z,15.50
2019-06-07T06:08:41.699Z,15.70
2019-06-07T06:11:10.085Z,15.80
2019-06-07T06:14:03.506Z,15.90
2019-06-07T06:16:09.509Z,15.90
2019-06-07T06:18:38.339Z,16.10
2019-06-07T06:21:18.720Z,16.10
2019-06-07T06:23:39.597Z,16.00
2019-06-07T06:26:08.426Z,16.20
2019-06-07T06:28:38.347Z,16.30
2019-06-07T06:31:07.686Z,16.30
2019-06-07T06:33:37.467Z,16.50
2019-06-07T06:36:06.928Z,16.40
2019-06-07T06:38:38.123Z,16.40
2019-06-07T06:41:15.635Z,16.50
2019-06-07T06:43:38.659Z,16.70
2019-06-07T06:46:07.899Z,16.70
2019-06-07T06:48:39.720Z,16.90
2019-06-07T06:51:07.647Z,17.00
2019-06-07T06:53:36.669Z,17.10
2019-06-07T06:56:05.774Z,17.10
2019-06-07T06:59:18.800Z,17.00
2019-06-07T07:01:07.121Z,17.10
2019-06-07T07:03:57.595Z,17.20
2019-06-07T07:06:25.337Z,17.20
2019-06-07T07:08:43.343Z,17.20
2019-06-07T07:11:12.398Z,17.20
2019-06-07T07:13:42.267Z,17.30
2019-06-07T07:16:12.049Z,17.30
2019-06-07T07:18:41.769Z,17.40
2019-06-07T07:21:10.858Z,17.50
2019-06-07T07:24:03.438Z,17.50
2019-06-07T07:26:10.851Z,17.40
2019-06-07T07:28:39.775Z,17.40
2019-06-07T07:31:08.782Z,17.40
2019-06-07T07:34:23.935Z,17.30
2019-06-07T07:36:23.159Z,17.40
2019-06-07T07:38:39.112Z,17.40
2019-06-07T07:41:15.154Z,17.60
2019-06-07T07:43:38.810Z,17.90
2019-06-07T07:46:28.579Z,18.10
2019-06-07T07:48:38.613Z,17.70
2019-06-07T07:51:07.626Z,17.50
2019-06-07T07:53:48.292Z,17.40
2019-06-07T07:56:07.482Z,17.30
2019-06-07T07:58:36.982Z,17.40
2019-06-07T08:01:10.643Z,17.50
2019-06-07T08:03:36.740Z,17.60
2019-06-07T08:06:05.729Z,17.80
2019-06-07T08:08:34.772Z,17.90
2019-06-07T08:11:03.902Z,18.00
2019-06-07T08:13:32.974Z,18.10
2019-06-07T08:16:09.802Z,18.10
2019-06-07T08:18:33.026Z,18.10
2019-06-07T08:21:21.544Z,18.20
2019-06-07T08:23:32.661Z,18.20
2019-06-07T08:26:01.681Z,17.90
2019-06-07T08:28:30.657Z,17.90
2019-06-07T08:31:06.556Z,18.00
2019-06-07T08:33:30.414Z,18.00
2019-06-07T08:36:19.555Z,18.00
2019-06-07T08:38:47.023Z,17.90
2019-06-07T08:41:11.090Z,18.10
2019-06-07T08:43:31.324Z,18.20
2019-06-07T08:46:06.872Z,18.20
2019-06-07T08:48:31.324Z,18.30
2019-06-07T08:51:06.550Z,18.30
2019-06-07T08:53:31.025Z,18.50
2019-06-07T08:56:06.918Z,18.30
2019-06-07T08:58:30.501Z,18.40
2019-06-07T09:01:06.380Z,18.30
2019-06-07T09:03:30.629Z,18.40
2019-06-07T09:06:06.571Z,18.80
2019-06-07T09:08:31.095Z,19.10
2019-06-07T09:11:05.132Z,19.10
2019-06-07T09:13:31.095Z,18.80
2019-06-07T09:16:05.902Z,18.60
2019-06-07T09:18:42.132Z,18.60
2019-06-07T09:21:07.716Z,18.90
2019-06-07T09:23:32.211Z,19.20
2019-06-07T09:26:15.385Z,19.30
2019-06-07T09:28:32.345Z,19.40
2019-06-07T09:31:06.926Z,19.30
2019-06-07T09:33:32.224Z,19.40
2019-06-07T09:36:06.137Z,19.60
2019-06-07T09:38:31.991Z,19.90
2019-06-07T09:41:03.188Z,19.90
2019-06-07T09:44:00.595Z,19.60
2019-06-07T09:46:11.152Z,19.70
2019-06-07T09:49:10.497Z,20.20
2019-06-07T09:51:09.730Z,20.30
2019-06-07T09:53:35.121Z,20.30
2019-06-07T09:56:08.745Z,20.60
2019-06-07T09:58:53.165Z,20.80
2019-06-07T10:01:10.589Z,21.00
2019-06-07T10:03:36.398Z,21.20
2019-06-07T10:06:09.880Z,21.40
2019-06-07T10:11:06.834Z,21.40
2019-06-07T10:13:35.708Z,21.80
2019-06-07T10:16:04.834Z,21.60
2019-06-07T10:18:33.923Z,21.80
2019-06-07T10:21:03.737Z,21.90
2019-06-07T10:23:33.218Z,21.70
2019-06-07T10:26:02.116Z,21.80
2019-06-07T10:28:31.030Z,21.90
2019-06-07T10:31:00.141Z,21.80
2019-06-07T10:33:29.156Z,22.00
2019-06-07T10:35:58.290Z,21.70
2019-06-07T10:38:27.128Z,22.00
2019-06-07T10:40:56.054Z,22.10
2019-06-07T10:43:24.924Z,22.10
2019-06-07T10:45:53.803Z,22.20
2019-06-07T10:48:25.014Z,22.30
2019-06-07T10:50:53.608Z,22.50
2019-06-07T10:53:22.644Z,22.70
2019-06-07T10:55:51.555Z,22.90
2019-06-07T10:58:20.874Z,22.70
2019-06-07T11:00:49.963Z,22.60
2019-06-07T11:03:18.969Z,22.60
2019-06-07T11:05:47.922Z,22.60
2019-06-07T11:08:17.057Z,22.60
2019-06-07T11:10:46.030Z,22.80
2019-06-07T11:13:15.296Z,23.30
2019-06-07T11:15:44.390Z,23.10
2019-06-07T11:18:14.423Z,22.90
2019-06-07T11:20:43.943Z,23.20
2019-06-07T11:23:14.216Z,23.30
2019-06-07T11:25:43.837Z,23.40
2019-06-07T11:28:12.890Z,23.40
2019-06-07T11:30:41.769Z,23.70
2019-06-07T11:33:12.003Z,23.70
2019-06-07T11:35:41.299Z,24.20
2019-06-07T11:38:10.552Z,23.90
2019-06-07T11:40:39.580Z,23.80
2019-06-07T11:43:09.177Z,23.60
2019-06-07T11:45:38.129Z,23.60
2019-06-07T11:48:07.225Z,23.70
2019-06-07T11:50:36.238Z,23.50
2019-06-07T11:53:06.446Z,23.60
2019-06-07T11:55:35.859Z,23.60
2019-06-07T11:58:05.177Z,23.80
2019-06-07T12:00:34.471Z,24.00
2019-06-07T12:03:03.804Z,23.80
2019-06-07T12:05:32.794Z,23.90
2019-06-07T12:08:01.756Z,24.30
2019-06-07T12:10:42.163Z,24.00
2019-06-07T12:13:01.322Z,24.00
2019-06-07T12:15:30.213Z,23.90
2019-06-07T12:17:59.232Z,23.50
2019-06-07T12:20:28.203Z,23.70
2019-06-07T12:22:57.310Z,24.00
2019-06-07T12:25:26.198Z,24.00
2019-06-07T12:27:55.039Z,24.30
2019-06-07T12:30:27.749Z,24.10
2019-06-07T12:32:54.639Z,24.40
2019-06-07T12:35:23.634Z,24.50
2019-06-07T12:37:52.641Z,24.50
2019-06-07T12:40:31.176Z,25.00
2019-06-07T12:42:52.646Z,25.10
2019-06-07T12:45:43.780Z,25.00
2019-06-07T12:47:52.479Z,25.20
2019-06-07T12:50:23.779Z,25.40
2019-06-07T12:52:52.846Z,25.40
2019-06-07T12:55:22.775Z,25.30
2019-06-07T12:57:52.492Z,24.90
2019-06-07T13:00:22.338Z,24.70
2019-06-07T13:02:51.509Z,24.20
2019-06-07T13:05:21.749Z,24.00
2019-06-07T13:07:51.145Z,23.80
2019-06-07T13:10:22.230Z,23.60
2019-06-07T13:12:51.227Z,23.70
2019-06-07T13:15:22.635Z,23.80
2019-06-07T13:17:50.879Z,23.80
2019-06-07T13:20:20.440Z,23.80
2019-06-07T13:22:49.578Z,23.90
2019-06-07T13:25:20.821Z,23.80
2019-06-07T13:27:49.581Z,23.80
2019-06-07T13:30:19.004Z,23.70
2019-06-07T13:32:48.270Z,23.50
2019-06-07T13:35:19.702Z,23.40
2019-06-07T13:37:48.227Z,23.20
2019-06-07T13:40:19.667Z,23.10
2019-06-07T13:42:48.345Z,23.00
2019-06-07T13:45:18.080Z,22.90
2019-06-07T13:47:47.285Z,22.80
2019-06-07T13:50:17.542Z,22.70
2019-06-07T13:52:48.396Z,22.70
2019-06-07T13:55:19.906Z,22.60
2019-06-07T13:57:49.247Z,22.60
2019-06-07T14:00:21.106Z,22.60
2019-06-07T14:02:49.754Z,22.60
2019-06-07T14:05:18.900Z,22.50
2019-06-07T14:07:48.153Z,22.50
2019-06-07T14:10:17.176Z,22.50
2019-06-07T14:12:46.036Z,22.40
2019-06-07T14:15:15.052Z,22.40
2019-06-07T14:17:43.917Z,22.30
2019-06-07T14:20:13.117Z,22.30
2019-06-07T14:22:42.308Z,22.30
2019-06-07T14:25:11.538Z,22.30
2019-06-07T14:27:40.544Z,22.20
2019-06-07T14:30:10.225Z,22.20
2019-06-07T14:32:39.206Z,22.20
2019-06-07T14:35:09.660Z,22.20
2019-06-07T14:37:38.997Z,22.30
2019-06-07T14:40:09.038Z,22.30
2019-06-07T14:42:37.986Z,22.40
2019-06-07T14:45:08.736Z,22.50
2019-06-07T14:47:37.859Z,22.50
2019-06-07T14:50:07.725Z,22.50
2019-06-07T14:52:36.784Z,22.40
2019-06-07T14:55:06.520Z,22.30
2019-06-07T14:57:35.576Z,22.40
2019-06-07T15:00:11.041Z,22.40
2019-06-07T15:02:38.328Z,22.40
2019-06-07T15:05:07.934Z,22.30
2019-06-07T15:07:36.829Z,22.30
2019-06-07T15:10:06.853Z,22.20
2019-06-07T15:12:35.830Z,22.20
2019-06-07T15:15:05.337Z,22.10
2019-06-07T15:17:35.417Z,22.10
2019-06-07T15:20:05.486Z,22.10
2019-06-07T15:22:34.569Z,22.20
2019-06-07T15:25:03.860Z,22.20
2019-06-07T15:27:33.279Z,21.90
2019-06-07T15:30:10.066Z,21.40
2019-06-07T15:32:35.191Z,20.90
2019-06-07T15:35:04.086Z,20.60
2019-06-07T15:37:34.582Z,20.50
2019-06-07T15:40:04.519Z,20.30
2019-06-07T15:42:47.623Z,20.00
2019-06-07T15:45:04.525Z,19.90
2019-06-07T15:47:33.818Z,19.80
2019-06-07T15:50:02.836Z,19.60
2019-06-07T15:52:31.677Z,19.40
2019-06-07T15:55:00.614Z,19.50
2019-06-07T15:57:30.971Z,19.60
2019-06-07T16:00:00.184Z,19.40
2019-06-07T16:02:29.231Z,19.50
2019-06-07T16:04:58.239Z,19.50
2019-06-07T16:07:27.274Z,19.50
2019-06-07T16:09:56.149Z,19.30
2019-06-07T16:12:25.174Z,19.20
2019-06-07T16:14:54.159Z,19.10
2019-06-07T16:17:23.068Z,19.10
2019-06-07T16:19:52.377Z,18.90
2019-06-07T16:22:21.230Z,18.80
2019-06-07T16:24:50.152Z,18.70
2019-06-07T16:27:19.176Z,18.80
2019-06-07T16:29:48.079Z,18.70
2019-06-07T16:32:17.478Z,18.60
2019-06-07T16:34:46.605Z,18.60
2019-06-07T16:37:15.533Z,18.50
2019-06-07T16:39:44.790Z,18.50
2019-06-07T16:42:13.882Z,18.50
2019-06-07T16:44:42.930Z,18.30
2019-06-07T16:47:11.901Z,18.30
2019-06-07T16:49:40.841Z,18.20
2019-06-07T16:52:09.769Z,18.20
2019-06-07T16:54:39.336Z,18.10
2019-06-07T16:57:08.733Z,18.00
2019-06-07T16:59:38.778Z,18.00
2019-06-07T17:02:07.851Z,17.90
2019-06-07T17:04:37.387Z,17.90
2019-06-07T17:07:06.559Z,17.70
2019-06-07T17:09:35.502Z,17.60
2019-06-07T17:12:04.623Z,17.40
2019-06-07T17:14:38.991Z,17.40
2019-06-07T17:17:07.858Z,17.10
2019-06-07T17:19:37.201Z,16.80
2019-06-07T17:22:06.207Z,16.60
2019-06-07T17:24:35.112Z,16.50
2019-06-07T17:27:04.206Z,16.40
2019-06-07T17:29:33.278Z,16.30
2019-06-07T17:32:02.218Z,16.20
2019-06-07T17:34:31.097Z,16.20
2019-06-07T17:37:00.089Z,16.10
2019-06-07T17:39:29.098Z,16.00
2019-06-07T17:42:02.109Z,16.10
2019-06-07T17:44:28.697Z,16.10
2019-06-07T17:46:57.782Z,16.10
2019-06-07T17:49:26.849Z,16.10
2019-06-07T17:51:55.905Z,16.00
2019-06-07T17:54:27.332Z,16.00
2019-06-07T17:56:56.327Z,16.00
2019-06-07T17:59:25.287Z,16.00
2019-06-07T18:02:13.444Z,15.90
2019-06-07T18:04:26.112Z,16.00
2019-06-07T18:06:56.218Z,16.00
2019-06-07T18:09:25.928Z,16.00
2019-06-07T18:11:55.438Z,16.00
2019-06-07T18:14:24.450Z,15.90
2019-06-07T18:16:54.697Z,15.90
2019-06-07T18:19:24.058Z,16.00
2019-06-07T18:21:58.607Z,16.00
2019-06-07T18:24:23.728Z,16.10
2019-06-07T18:26:53.044Z,16.10
2019-06-07T18:29:22.148Z,16.00
2019-06-07T18:31:51.070Z,16.00
2019-06-07T18:34:19.946Z,16.10
2019-06-07T18:36:49.020Z,16.00
2019-06-07T18:39:18.146Z,16.00
2019-06-07T18:41:47.173Z,16.00
2019-06-07T18:44:21.566Z,15.90
2019-06-07T18:46:49.961Z,16.00
2019-06-07T18:49:19.420Z,16.00
2019-06-07T18:52:09.027Z,16.00
2019-06-07T18:56:31.035Z,16.00
2019-06-07T18:57:31.050Z,16.00
2019-06-07T19:00:12.063Z,16.10
2019-06-07T19:03:19.882Z,16.10
2019-06-07T19:05:24.554Z,16.00
2019-06-07T19:07:57.198Z,16.10
2019-06-07T19:10:39.032Z,16.10
2019-06-07T19:18:51.537Z,16.00
2019-06-07T19:21:23.543Z,15.90
2019-06-07T19:24:04.833Z,15.90
2019-06-07T19:26:35.856Z,15.90
2019-06-07T19:29:07.030Z,15.90
2019-06-07T19:31:35.921Z,15.90
2019-06-07T19:34:07.282Z,15.80
2019-06-07T19:36:48.263Z,15.80
2019-06-07T19:39:08.963Z,15.70
2019-06-07T19:41:37.906Z,15.70
2019-06-07T19:44:06.925Z,15.60
2019-06-07T19:46:36.709Z,15.60
2019-06-07T19:49:05.902Z,15.50
2019-06-07T19:51:36.663Z,15.50
2019-06-07T19:54:05.789Z,15.50
2019-06-07T19:56:45.353Z,15.40
2019-06-07T19:59:07.441Z,15.40
2019-06-07T20:01:36.670Z,15.40
2019-06-07T20:04:05.731Z,15.40
2019-06-07T20:06:34.967Z,15.30
2019-06-07T20:09:05.582Z,15.30
2019-06-07T20:11:34.533Z,15.30
2019-06-07T20:14:04.974Z,15.20
2019-06-07T20:16:51.518Z,15.20
2019-06-07T20:19:31.988Z,15.20
2019-06-07T20:21:52.450Z,15.10
2019-06-07T20:24:27.133Z,15.10
2019-06-07T20:26:52.356Z,15.10
2019-06-07T20:29:25.743Z,15.10
2019-06-07T20:31:52.534Z,15.20
2019-06-07T20:34:21.713Z,15.20
2019-06-07T20:36:50.634Z,15.20
2019-06-07T20:39:19.689Z,15.20
2019-06-07T20:41:48.637Z,15.30
2019-06-07T20:44:17.708Z,15.30
2019-06-07T20:46:46.734Z,15.30
2019-06-07T20:49:15.686Z,15.40
2019-06-07T20:51:44.717Z,15.40
2019-06-07T20:54:13.677Z,15.40
2019-06-07T20:56:42.596Z,15.40
2019-06-07T20:59:11.462Z,15.40
2019-06-07T21:01:42.697Z,15.50
2019-06-07T21:04:11.263Z,15.50
2019-06-07T21:06:40.421Z,15.50
2019-06-07T21:09:09.756Z,15.50
2019-06-07T21:11:38.821Z,15.50
2019-06-07T21:14:08.213Z,15.40
2019-06-07T21:16:37.381Z,15.40
2019-06-07T21:19:06.441Z,15.40
2019-06-07T21:21:35.390Z,15.30
2019-06-07T21:24:04.653Z,15.30
2019-06-07T21:26:33.639Z,15.30
2019-06-07T21:29:03.340Z,15.30
2019-06-07T21:31:32.545Z,15.30
2019-06-07T21:34:01.588Z,15.20
2019-06-07T21:36:30.693Z,15.30
2019-06-07T21:38:59.633Z,15.30
2019-06-07T21:41:30.614Z,15.30
2019-06-07T21:43:59.554Z,15.30
2019-06-07T21:46:28.401Z,15.30
2019-06-07T21:48:57.703Z,15.30
2019-06-07T21:51:27.148Z,15.30
2019-06-07T21:53:56.204Z,15.30
2019-06-07T21:56:25.197Z,15.30
2019-06-07T21:58:54.283Z,15.30
2019-06-07T22:01:26.761Z,15.30
2019-06-07T22:03:55.776Z,15.30
2019-06-07T22:06:24.926Z,15.40
2019-06-07T22:08:53.930Z,15.50
2019-06-07T22:11:23.049Z,15.50
2019-06-07T22:13:52.015Z,15.60
2019-06-07T22:16:28.539Z,15.70
2019-06-07T22:18:51.671Z,15.70
2019-06-07T22:21:20.536Z,15.80
2019-06-07T22:23:49.497Z,15.80
2019-06-07T22:26:18.440Z,15.80
2019-06-07T22:28:47.354Z,15.90
2019-06-07T22:31:16.390Z,15.90
2019-06-07T22:33:45.428Z,15.90
2019-06-07T22:36:15.878Z,15.90
2019-06-07T22:38:45.425Z,15.90
2019-06-07T22:41:15.724Z,15.90
2019-06-07T22:43:45.089Z,16.00
2019-06-07T22:46:15.050Z,16.00
2019-06-07T22:48:44.225Z,16.00
2019-06-07T22:51:14.514Z,16.00
2019-06-07T22:53:44.226Z,15.90
2019-06-07T22:56:21.795Z,16.00
2019-06-07T22:58:50.717Z,15.90
2019-06-07T23:01:20.274Z,16.00
2019-06-07T23:03:49.194Z,16.00
2019-06-07T23:06:18.961Z,16.00
2019-06-07T23:08:48.221Z,16.00
2019-06-07T23:11:17.425Z,16.00
2019-06-07T23:13:46.430Z,16.00
2019-06-07T23:16:15.778Z,16.00
2019-06-07T23:18:44.757Z,16.00
2019-06-07T23:21:13.847Z,16.00
2019-06-07T23:23:42.760Z,16.00
2019-06-07T23:26:12.187Z,16.00
2019-06-07T23:28:41.222Z,16.00
2019-06-07T23:31:10.400Z,16.00
2019-06-07T23:33:39.401Z,16.00
2019-06-07T23:36:08.506Z,16.00
2019-06-07T23:38:37.401Z,16.00
2019-06-07T23:41:06.554Z,15.90
2019-06-07T23:43:35.576Z,15.80
2019-06-07T23:46:04.527Z,15.70
2019-06-07T23:48:33.513Z,15.70
2019-06-07T23:51:02.569Z,15.70
2019-06-07T23:53:31.532Z,15.70
2019-06-07T23:56:00.529Z,15.70
2019-06-07T23:58:29.625Z,15.70
